sensor_id;sensor_type;location;lat;lon;timestamp;temperature;humidity
6244;DHT22;3155;49.940;8.450;2022-12-07T00:01:46;2.00;1.00
6244;DHT22;3155;49.940;8.450;2022-12-07T00:04:17;2.00;1.00
6244;DHT22;3155;49.940;8.450;2022-12-07T00:06:46;2.00;1.00
6244;DHT22;3155;49.940;8.450;2022-12-07T00:09:16;2.00;26.50
6244;DHT22;3155;49.940;8.450;2022-12-07T00:11:43;2.00;13.80
6244;DHT22;3155;49.940;8.450;2022-12-07T00:14:14;2.00;48.10
6244;DHT22;3155;49.940;8.450;2022-12-07T00:16:42;2.00;99.90
6244;DHT22;3155;49.940;8.450;2022-12-07T00:19:11;2.00;99.90
6244;DHT22;3155;49.940;8.450;2022-12-07T00:21:38;2.00;99.90
6244;DHT22;3155;49.940;8.450;2022-12-07T00:24:06;1.90;99.90
6244;DHT22;3155;49.940;8.450;2022-12-07T00:26:37;1.90;99.90
6244;DHT22;3155;49.940;8.450;2022-12-07T00:29:14;1.90;99.90
6244;DHT22;3155;49.940;8.450;2022-12-07T00:31:42;1.90;99.90
6244;DHT22;3155;49.940;8.450;2022-12-07T00:34:13;1.90;99.90
6244;DHT22;3155;49.940;8.450;2022-12-07T00:36:40;1.90;99.90
6244;DHT22;3155;49.940;8.450;2022-12-07T00:39:07;1.90;99.90
6244;DHT22;3155;49.940;8.450;2022-12-07T00:41:37;1.90;99.90
6244;DHT22;3155;49.940;8.450;2022-12-07T00:44:03;2.00;99.90
6244;DHT22;3155;49.940;8.450;2022-12-07T00:46:30;1.90;99.90
6244;DHT22;3155;49.940;8.450;2022-12-07T00:48:57;1.90;1.00
6244;DHT22;3155;49.940;8.450;2022-12-07T00:51:25;2.00;1.00
6244;DHT22;3155;49.940;8.450;2022-12-07T00:53:52;2.00;1.00
6244;DHT22;3155;49.940;8.450;2022-12-07T00:58:58;2.00;99.90
6244;DHT22;3155;49.940;8.450;2022-12-07T01:01:28;1.90;99.90
6244;DHT22;3155;49.940;8.450;2022-12-07T01:03:55;1.90;99.90
6244;DHT22;3155;49.940;8.450;2022-12-07T01:06:23;1.90;99.90
6244;DHT22;3155;49.940;8.450;2022-12-07T01:08:51;1.80;99.90
6244;DHT22;3155;49.940;8.450;2022-12-07T01:11:20;1.80;99.90
6244;DHT22;3155;49.940;8.450;2022-12-07T01:13:50;1.80;99.90
6244;DHT22;3155;49.940;8.450;2022-12-07T01:16:17;1.80;99.90
6244;DHT22;3155;49.940;8.450;2022-12-07T01:18:50;1.70;99.90
6244;DHT22;3155;49.940;8.450;2022-12-07T01:21:19;1.70;31.20
6244;DHT22;3155;49.940;8.450;2022-12-07T01:23:51;1.50;53.30
6244;DHT22;3155;49.940;8.450;2022-12-07T01:26:22;1.50;98.70
6244;DHT22;3155;49.940;8.450;2022-12-07T01:28:49;1.50;99.90
6244;DHT22;3155;49.940;8.450;2022-12-07T01:31:19;1.50;99.90
6244;DHT22;3155;49.940;8.450;2022-12-07T01:33:48;1.50;1.00
6244;DHT22;3155;49.940;8.450;2022-12-07T01:36:20;1.50;1.00
6244;DHT22;3155;49.940;8.450;2022-12-07T01:38:49;1.50;1.00
6244;DHT22;3155;49.940;8.450;2022-12-07T01:41:19;1.50;1.00
6244;DHT22;3155;49.940;8.450;2022-12-07T01:44:23;1.50;1.00
6244;DHT22;3155;49.940;8.450;2022-12-07T01:49:30;1.60;99.90
6244;DHT22;3155;49.940;8.450;2022-12-07T01:52:21;1.70;99.90
6244;DHT22;3155;49.940;8.450;2022-12-07T01:54:55;1.70;99.90
6244;DHT22;3155;49.940;8.450;2022-12-07T01:57:23;1.80;99.90
6244;DHT22;3155;49.940;8.450;2022-12-07T01:59:51;1.80;99.90
6244;DHT22;3155;49.940;8.450;2022-12-07T02:02:42;1.90;99.90
6244;DHT22;3155;49.940;8.450;2022-12-07T02:05:10;1.90;4.00
6244;DHT22;3155;49.940;8.450;2022-12-07T02:07:38;1.90;1.00
6244;DHT22;3155;49.940;8.450;2022-12-07T02:10:16;2.00;1.00
6244;DHT22;3155;49.940;8.450;2022-12-07T02:12:49;1.90;99.90
6244;DHT22;3155;49.940;8.450;2022-12-07T02:15:19;1.90;99.90
6244;DHT22;3155;49.940;8.450;2022-12-07T02:39:59;2.20;1.00
6244;DHT22;3155;49.940;8.450;2022-12-07T02:42:38;2.20;1.00
6244;DHT22;3155;49.940;8.450;2022-12-07T02:45:08;2.30;1.00
6244;DHT22;3155;49.940;8.450;2022-12-07T02:47:37;2.30;99.90
6244;DHT22;3155;49.940;8.450;2022-12-07T02:50:06;2.30;99.90
6244;DHT22;3155;49.940;8.450;2022-12-07T02:52:36;2.30;99.90
6244;DHT22;3155;49.940;8.450;2022-12-07T02:55:03;2.40;99.90
6244;DHT22;3155;49.940;8.450;2022-12-07T02:57:42;2.40;99.90
6244;DHT22;3155;49.940;8.450;2022-12-07T03:00:15;2.40;99.90
6244;DHT22;3155;49.940;8.450;2022-12-07T03:03:03;2.40;99.90
6244;DHT22;3155;49.940;8.450;2022-12-07T03:11:39;2.40;99.90
6244;DHT22;3155;49.940;8.450;2022-12-07T03:14:17;2.40;99.90
6244;DHT22;3155;49.940;8.450;2022-12-07T03:17:00;2.50;99.90
6244;DHT22;3155;49.940;8.450;2022-12-07T03:19:30;2.50;99.90
6244;DHT22;3155;49.940;8.450;2022-12-07T03:22:10;2.50;99.90
6244;DHT22;3155;49.940;8.450;2022-12-07T03:24:45;2.50;99.90
6244;DHT22;3155;49.940;8.450;2022-12-07T03:27:18;2.60;99.90
6244;DHT22;3155;49.940;8.450;2022-12-07T03:29:51;2.60;99.90
6244;DHT22;3155;49.940;8.450;2022-12-07T03:32:27;2.50;99.90
6244;DHT22;3155;49.940;8.450;2022-12-07T03:34:57;2.50;99.90
6244;DHT22;3155;49.940;8.450;2022-12-07T03:37:34;2.50;99.90
6244;DHT22;3155;49.940;8.450;2022-12-07T03:40:26;2.50;99.90
6244;DHT22;3155;49.940;8.450;2022-12-07T03:42:55;2.50;99.90
6244;DHT22;3155;49.940;8.450;2022-12-07T03:45:28;2.50;99.90
6244;DHT22;3155;49.940;8.450;2022-12-07T03:48:22;2.50;99.90
6244;DHT22;3155;49.940;8.450;2022-12-07T03:51:01;2.60;99.90
6244;DHT22;3155;49.940;8.450;2022-12-07T03:54:10;2.60;99.90
6244;DHT22;3155;49.940;8.450;2022-12-07T03:56:39;2.60;99.90
6244;DHT22;3155;49.940;8.450;2022-12-07T03:59:07;2.60;99.90
6244;DHT22;3155;49.940;8.450;2022-12-07T04:01:34;2.60;99.90
6244;DHT22;3155;49.940;8.450;2022-12-07T04:04:00;2.60;99.90
6244;DHT22;3155;49.940;8.450;2022-12-07T04:06:27;2.60;99.90
6244;DHT22;3155;49.940;8.450;2022-12-07T04:08:54;2.60;99.90
6244;DHT22;3155;49.940;8.450;2022-12-07T04:11:21;2.70;99.90
6244;DHT22;3155;49.940;8.450;2022-12-07T04:13:47;2.70;99.90
6244;DHT22;3155;49.940;8.450;2022-12-07T04:16:33;2.70;99.90
6244;DHT22;3155;49.940;8.450;2022-12-07T04:19:06;2.70;99.90
6244;DHT22;3155;49.940;8.450;2022-12-07T04:21:33;2.70;99.90
6244;DHT22;3155;49.940;8.450;2022-12-07T04:23:59;2.70;99.90
6244;DHT22;3155;49.940;8.450;2022-12-07T04:26:26;2.70;99.90
6244;DHT22;3155;49.940;8.450;2022-12-07T04:28:59;2.70;99.90
6244;DHT22;3155;49.940;8.450;2022-12-07T04:31:33;2.80;99.90
6244;DHT22;3155;49.940;8.450;2022-12-07T04:34:00;2.80;99.90
6244;DHT22;3155;49.940;8.450;2022-12-07T04:36:26;2.90;99.90
6244;DHT22;3155;49.940;8.450;2022-12-07T04:38:56;2.90;99.90
6244;DHT22;3155;49.940;8.450;2022-12-07T04:41:24;2.90;99.90
6244;DHT22;3155;49.940;8.450;2022-12-07T04:44:02;2.90;99.90
6244;DHT22;3155;49.940;8.450;2022-12-07T04:46:31;2.90;99.90
6244;DHT22;3155;49.940;8.450;2022-12-07T04:49:00;2.90;99.90
6244;DHT22;3155;49.940;8.450;2022-12-07T04:51:30;2.90;99.90
6244;DHT22;3155;49.940;8.450;2022-12-07T04:53:57;2.90;99.90
6244;DHT22;3155;49.940;8.450;2022-12-07T04:56:24;2.90;99.90
6244;DHT22;3155;49.940;8.450;2022-12-07T04:58:52;3.00;99.90
6244;DHT22;3155;49.940;8.450;2022-12-07T05:01:25;3.00;99.90
6244;DHT22;3155;49.940;8.450;2022-12-07T05:03:52;3.00;99.90
6244;DHT22;3155;49.940;8.450;2022-12-07T05:06:19;3.10;99.90
6244;DHT22;3155;49.940;8.450;2022-12-07T05:08:46;3.10;99.90
6244;DHT22;3155;49.940;8.450;2022-12-07T05:11:13;3.10;99.90
6244;DHT22;3155;49.940;8.450;2022-12-07T05:14:02;3.10;99.90
6244;DHT22;3155;49.940;8.450;2022-12-07T05:16:29;3.10;99.90
6244;DHT22;3155;49.940;8.450;2022-12-07T05:18:59;3.20;99.90
6244;DHT22;3155;49.940;8.450;2022-12-07T05:21:26;3.20;99.90
6244;DHT22;3155;49.940;8.450;2022-12-07T05:23:52;3.20;99.90
6244;DHT22;3155;49.940;8.450;2022-12-07T05:26:19;3.20;99.90
6244;DHT22;3155;49.940;8.450;2022-12-07T05:28:53;3.20;99.90
6244;DHT22;3155;49.940;8.450;2022-12-07T05:31:20;3.20;99.90
6244;DHT22;3155;49.940;8.450;2022-12-07T05:33:48;3.20;99.90
6244;DHT22;3155;49.940;8.450;2022-12-07T05:36:15;3.20;99.90
6244;DHT22;3155;49.940;8.450;2022-12-07T05:38:42;3.20;99.90
6244;DHT22;3155;49.940;8.450;2022-12-07T05:41:15;3.20;99.90
6244;DHT22;3155;49.940;8.450;2022-12-07T05:44:01;3.20;99.90
6244;DHT22;3155;49.940;8.450;2022-12-07T05:46:27;3.20;99.90
6244;DHT22;3155;49.940;8.450;2022-12-07T05:48:54;3.30;99.90
6244;DHT22;3155;49.940;8.450;2022-12-07T05:51:21;3.30;99.90
6244;DHT22;3155;49.940;8.450;2022-12-07T05:53:48;3.30;99.90
6244;DHT22;3155;49.940;8.450;2022-12-07T05:56:15;3.30;99.90
6244;DHT22;3155;49.940;8.450;2022-12-07T05:58:42;3.30;99.90
6244;DHT22;3155;49.940;8.450;2022-12-07T06:01:27;3.30;99.90
6244;DHT22;3155;49.940;8.450;2022-12-07T06:03:54;3.30;99.90
6244;DHT22;3155;49.940;8.450;2022-12-07T06:06:21;3.30;99.90
6244;DHT22;3155;49.940;8.450;2022-12-07T06:08:48;3.30;99.90
6244;DHT22;3155;49.940;8.450;2022-12-07T06:11:14;3.30;99.90
6244;DHT22;3155;49.940;8.450;2022-12-07T06:14:00;3.30;99.90
6244;DHT22;3155;49.940;8.450;2022-12-07T06:16:27;3.30;99.90
6244;DHT22;3155;49.940;8.450;2022-12-07T06:18:54;3.30;99.90
6244;DHT22;3155;49.940;8.450;2022-12-07T06:21:21;3.30;99.90
6244;DHT22;3155;49.940;8.450;2022-12-07T06:23:48;3.30;99.90
6244;DHT22;3155;49.940;8.450;2022-12-07T06:26:15;3.30;99.90
6244;DHT22;3155;49.940;8.450;2022-12-07T06:28:41;3.30;99.90
6244;DHT22;3155;49.940;8.450;2022-12-07T06:31:09;3.30;99.90
6244;DHT22;3155;49.940;8.450;2022-12-07T06:33:40;3.30;99.90
6244;DHT22;3155;49.940;8.450;2022-12-07T06:36:07;3.30;99.90
6244;DHT22;3155;49.940;8.450;2022-12-07T06:38:34;3.30;99.90
6244;DHT22;3155;49.940;8.450;2022-12-07T06:41:02;3.20;99.90
6244;DHT22;3155;49.940;8.450;2022-12-07T06:43:29;3.20;99.90
6244;DHT22;3155;49.940;8.450;2022-12-07T06:45:56;3.20;99.90
6244;DHT22;3155;49.940;8.450;2022-12-07T06:48:25;3.10;99.90
6244;DHT22;3155;49.940;8.450;2022-12-07T06:50:53;3.10;99.90
6244;DHT22;3155;49.940;8.450;2022-12-07T06:53:22;3.10;99.90
6244;DHT22;3155;49.940;8.450;2022-12-07T06:55:49;3.10;99.90
6244;DHT22;3155;49.940;8.450;2022-12-07T06:58:16;3.10;99.90
6244;DHT22;3155;49.940;8.450;2022-12-07T07:00:44;3.10;99.90
6244;DHT22;3155;49.940;8.450;2022-12-07T07:03:10;3.00;99.90
6244;DHT22;3155;49.940;8.450;2022-12-07T07:05:37;3.00;99.90
6244;DHT22;3155;49.940;8.450;2022-12-07T07:08:04;3.00;99.90
6244;DHT22;3155;49.940;8.450;2022-12-07T07:10:47;3.00;99.90
6244;DHT22;3155;49.940;8.450;2022-12-07T07:13:16;2.90;99.90
6244;DHT22;3155;49.940;8.450;2022-12-07T07:15:43;2.90;99.90
6244;DHT22;3155;49.940;8.450;2022-12-07T07:18:10;2.90;99.90
6244;DHT22;3155;49.940;8.450;2022-12-07T07:20:37;2.90;99.90
6244;DHT22;3155;49.940;8.450;2022-12-07T07:23:04;2.90;99.90
6244;DHT22;3155;49.940;8.450;2022-12-07T07:25:31;2.80;99.90
6244;DHT22;3155;49.940;8.450;2022-12-07T07:27:58;2.80;99.90
6244;DHT22;3155;49.940;8.450;2022-12-07T07:30:26;2.80;99.90
6244;DHT22;3155;49.940;8.450;2022-12-07T07:33:00;2.80;99.90
6244;DHT22;3155;49.940;8.450;2022-12-07T07:35:29;2.80;99.90
6244;DHT22;3155;49.940;8.450;2022-12-07T07:37:56;2.80;99.90
6244;DHT22;3155;49.940;8.450;2022-12-07T07:40:23;2.90;99.90
6244;DHT22;3155;49.940;8.450;2022-12-07T07:42:53;2.90;99.90
6244;DHT22;3155;49.940;8.450;2022-12-07T07:45:22;3.00;99.90
6244;DHT22;3155;49.940;8.450;2022-12-07T07:47:52;3.00;99.90
6244;DHT22;3155;49.940;8.450;2022-12-07T07:50:19;3.10;99.90
6244;DHT22;3155;49.940;8.450;2022-12-07T07:52:49;3.20;99.90
6244;DHT22;3155;49.940;8.450;2022-12-07T07:55:16;3.20;99.90
6244;DHT22;3155;49.940;8.450;2022-12-07T07:57:43;3.30;99.90
6244;DHT22;3155;49.940;8.450;2022-12-07T08:00:18;3.30;99.90
6244;DHT22;3155;49.940;8.450;2022-12-07T08:02:45;3.40;99.90
6244;DHT22;3155;49.940;8.450;2022-12-07T08:05:13;3.40;99.90
6244;DHT22;3155;49.940;8.450;2022-12-07T08:07:40;3.50;99.90
6244;DHT22;3155;49.940;8.450;2022-12-07T08:10:09;3.50;99.90
6244;DHT22;3155;49.940;8.450;2022-12-07T08:12:41;3.60;99.90
6244;DHT22;3155;49.940;8.450;2022-12-07T08:15:28;3.70;99.90
6244;DHT22;3155;49.940;8.450;2022-12-07T08:17:55;3.80;99.90
6244;DHT22;3155;49.940;8.450;2022-12-07T08:20:22;3.90;99.90
6244;DHT22;3155;49.940;8.450;2022-12-07T08:22:49;3.90;99.90
6244;DHT22;3155;49.940;8.450;2022-12-07T08:25:16;3.90;99.90
6244;DHT22;3155;49.940;8.450;2022-12-07T08:27:43;3.90;99.90
6244;DHT22;3155;49.940;8.450;2022-12-07T08:30:10;3.80;99.90
6244;DHT22;3155;49.940;8.450;2022-12-07T08:32:36;3.70;99.90
6244;DHT22;3155;49.940;8.450;2022-12-07T08:35:03;3.60;99.90
6244;DHT22;3155;49.940;8.450;2022-12-07T08:37:31;3.50;99.90
6244;DHT22;3155;49.940;8.450;2022-12-07T08:39:59;3.50;99.90
6244;DHT22;3155;49.940;8.450;2022-12-07T08:45:21;3.50;99.90
6244;DHT22;3155;49.940;8.450;2022-12-07T08:50:24;3.60;99.90
6244;DHT22;3155;49.940;8.450;2022-12-07T08:52:53;3.70;99.90
6244;DHT22;3155;49.940;8.450;2022-12-07T08:55:21;3.80;99.90
6244;DHT22;3155;49.940;8.450;2022-12-07T08:57:48;3.80;99.90
6244;DHT22;3155;49.940;8.450;2022-12-07T09:00:16;3.80;99.90
6244;DHT22;3155;49.940;8.450;2022-12-07T09:02:46;3.90;99.90
6244;DHT22;3155;49.940;8.450;2022-12-07T09:05:13;4.10;99.90
6244;DHT22;3155;49.940;8.450;2022-12-07T09:07:48;4.70;99.90
6244;DHT22;3155;49.940;8.450;2022-12-07T09:10:16;5.20;99.90
6244;DHT22;3155;49.940;8.450;2022-12-07T09:12:45;5.60;99.90
6244;DHT22;3155;49.940;8.450;2022-12-07T09:15:12;5.90;99.90
6244;DHT22;3155;49.940;8.450;2022-12-07T09:17:38;5.90;99.90
6244;DHT22;3155;49.940;8.450;2022-12-07T09:20:06;5.70;99.90
6244;DHT22;3155;49.940;8.450;2022-12-07T09:22:33;5.40;99.90
6244;DHT22;3155;49.940;8.450;2022-12-07T09:25:00;5.20;99.90
6244;DHT22;3155;49.940;8.450;2022-12-07T09:27:27;5.00;99.90
6244;DHT22;3155;49.940;8.450;2022-12-07T09:29:54;4.70;99.90
6244;DHT22;3155;49.940;8.450;2022-12-07T09:32:21;4.70;99.90
6244;DHT22;3155;49.940;8.450;2022-12-07T09:34:49;4.50;99.90
6244;DHT22;3155;49.940;8.450;2022-12-07T09:37:19;4.50;99.90
6244;DHT22;3155;49.940;8.450;2022-12-07T09:39:46;4.50;99.90
6244;DHT22;3155;49.940;8.450;2022-12-07T09:42:36;4.50;99.90
6244;DHT22;3155;49.940;8.450;2022-12-07T09:45:06;4.50;99.90
6244;DHT22;3155;49.940;8.450;2022-12-07T09:47:33;4.50;99.90
6244;DHT22;3155;49.940;8.450;2022-12-07T09:50:05;4.60;99.90
6244;DHT22;3155;49.940;8.450;2022-12-07T09:52:32;4.60;99.90
6244;DHT22;3155;49.940;8.450;2022-12-07T09:55:13;4.60;99.90
6244;DHT22;3155;49.940;8.450;2022-12-07T09:57:41;4.70;99.90
6244;DHT22;3155;49.940;8.450;2022-12-07T10:00:16;4.80;99.90
6244;DHT22;3155;49.940;8.450;2022-12-07T10:05:40;4.90;99.90
6244;DHT22;3155;49.940;8.450;2022-12-07T10:08:11;5.00;99.90
6244;DHT22;3155;49.940;8.450;2022-12-07T10:10:39;5.10;99.90
6244;DHT22;3155;49.940;8.450;2022-12-07T10:13:14;5.10;99.90
6244;DHT22;3155;49.940;8.450;2022-12-07T10:18:30;5.40;99.90
6244;DHT22;3155;49.940;8.450;2022-12-07T10:21:16;5.60;99.90
6244;DHT22;3155;49.940;8.450;2022-12-07T10:29:17;6.10;99.90
6244;DHT22;3155;49.940;8.450;2022-12-07T10:31:54;5.90;99.90
6244;DHT22;3155;49.940;8.450;2022-12-07T10:34:30;5.70;99.90
6244;DHT22;3155;49.940;8.450;2022-12-07T10:39:47;5.30;99.90
6244;DHT22;3155;49.940;8.450;2022-12-07T10:42:19;5.20;99.90
6244;DHT22;3155;49.940;8.450;2022-12-07T10:44:48;5.10;99.90
6244;DHT22;3155;49.940;8.450;2022-12-07T11:00:43;5.90;99.90
6244;DHT22;3155;49.940;8.450;2022-12-07T11:03:27;6.10;99.90
6244;DHT22;3155;49.940;8.450;2022-12-07T11:08:57;8.30;99.90
6244;DHT22;3155;49.940;8.450;2022-12-07T11:11:38;9.70;99.90
6244;DHT22;3155;49.940;8.450;2022-12-07T11:27:37;11.70;99.90
6244;DHT22;3155;49.940;8.450;2022-12-07T11:30:24;10.80;99.90
6244;DHT22;3155;49.940;8.450;2022-12-07T11:32:59;9.70;99.90
6244;DHT22;3155;49.940;8.450;2022-12-07T11:35:54;8.80;99.90
6244;DHT22;3155;49.940;8.450;2022-12-07T11:38:40;8.20;99.90
6244;DHT22;3155;49.940;8.450;2022-12-07T11:41:12;7.80;99.90
6244;DHT22;3155;49.940;8.450;2022-12-07T11:43:59;7.50;99.90
6244;DHT22;3155;49.940;8.450;2022-12-07T11:46:44;7.40;99.90
6244;DHT22;3155;49.940;8.450;2022-12-07T11:52:06;7.50;99.90
6244;DHT22;3155;49.940;8.450;2022-12-07T11:54:40;7.70;99.90
6244;DHT22;3155;49.940;8.450;2022-12-07T11:57:16;7.70;99.90
6244;DHT22;3155;49.940;8.450;2022-12-07T11:59:50;7.80;99.90
6244;DHT22;3155;49.940;8.450;2022-12-07T12:02:29;7.70;99.90
6244;DHT22;3155;49.940;8.450;2022-12-07T12:05:19;7.70;99.90
6244;DHT22;3155;49.940;8.450;2022-12-07T12:19:54;8.10;99.90
6244;DHT22;3155;49.940;8.450;2022-12-07T12:22:27;7.70;99.90
6244;DHT22;3155;49.940;8.450;2022-12-07T12:24:55;7.50;99.90
6244;DHT22;3155;49.940;8.450;2022-12-07T12:27:29;7.40;99.90
6244;DHT22;3155;49.940;8.450;2022-12-07T12:30:02;7.30;99.90
6244;DHT22;3155;49.940;8.450;2022-12-07T12:32:44;7.40;99.90
6244;DHT22;3155;49.940;8.450;2022-12-07T12:38:20;7.40;99.90
6244;DHT22;3155;49.940;8.450;2022-12-07T12:40:51;7.30;99.90
6244;DHT22;3155;49.940;8.450;2022-12-07T13:02:38;6.90;99.90
6244;DHT22;3155;49.940;8.450;2022-12-07T13:16:41;8.00;99.90
6244;DHT22;3155;49.940;8.450;2022-12-07T13:18:42;7.70;99.90
6244;DHT22;3155;49.940;8.450;2022-12-07T13:31:42;7.10;99.90
6244;DHT22;3155;49.940;8.450;2022-12-07T13:34:32;7.10;99.90
6244;DHT22;3155;49.940;8.450;2022-12-07T13:37:15;7.20;99.90
6244;DHT22;3155;49.940;8.450;2022-12-07T13:42:30;7.20;99.90
6244;DHT22;3155;49.940;8.450;2022-12-07T13:44:59;7.30;99.90
6244;DHT22;3155;49.940;8.450;2022-12-07T13:47:41;7.50;99.90
6244;DHT22;3155;49.940;8.450;2022-12-07T13:50:51;7.70;99.90
6244;DHT22;3155;49.940;8.450;2022-12-07T13:53:18;7.70;99.90
6244;DHT22;3155;49.940;8.450;2022-12-07T13:55:47;7.50;99.90
6244;DHT22;3155;49.940;8.450;2022-12-07T13:58:21;7.40;99.90
6244;DHT22;3155;49.940;8.450;2022-12-07T14:00:48;7.20;99.90
6244;DHT22;3155;49.940;8.450;2022-12-07T14:05:45;6.90;99.90
6244;DHT22;3155;49.940;8.450;2022-12-07T14:10:53;6.90;99.90
6244;DHT22;3155;49.940;8.450;2022-12-07T14:13:39;6.90;99.90
6244;DHT22;3155;49.940;8.450;2022-12-07T14:16:29;6.80;99.90
6244;DHT22;3155;49.940;8.450;2022-12-07T14:18:58;6.60;99.90
6244;DHT22;3155;49.940;8.450;2022-12-07T14:21:28;6.50;99.90
6244;DHT22;3155;49.940;8.450;2022-12-07T14:24:17;6.50;99.90
6244;DHT22;3155;49.940;8.450;2022-12-07T14:26:48;6.40;99.90
6244;DHT22;3155;49.940;8.450;2022-12-07T14:31:52;6.20;99.90
6244;DHT22;3155;49.940;8.450;2022-12-07T14:34:23;6.10;99.90
6244;DHT22;3155;49.940;8.450;2022-12-07T14:36:50;6.10;99.90
6244;DHT22;3155;49.940;8.450;2022-12-07T14:39:17;6.10;99.90
6244;DHT22;3155;49.940;8.450;2022-12-07T14:41:44;6.00;99.90
6244;DHT22;3155;49.940;8.450;2022-12-07T14:44:21;5.90;99.90
6244;DHT22;3155;49.940;8.450;2022-12-07T14:46:53;5.90;99.90
6244;DHT22;3155;49.940;8.450;2022-12-07T14:49:40;5.80;99.90
6244;DHT22;3155;49.940;8.450;2022-12-07T14:52:15;5.80;99.90
6244;DHT22;3155;49.940;8.450;2022-12-07T14:55:03;5.80;99.90
6244;DHT22;3155;49.940;8.450;2022-12-07T14:57:30;5.60;99.90
6244;DHT22;3155;49.940;8.450;2022-12-07T14:59:57;5.50;99.90
6244;DHT22;3155;49.940;8.450;2022-12-07T15:02:24;5.20;99.90
6244;DHT22;3155;49.940;8.450;2022-12-07T15:04:50;5.10;99.90
6244;DHT22;3155;49.940;8.450;2022-12-07T15:07:20;5.10;99.90
6244;DHT22;3155;49.940;8.450;2022-12-07T15:09:48;5.10;99.90
6244;DHT22;3155;49.940;8.450;2022-12-07T15:12:14;5.10;99.90
6244;DHT22;3155;49.940;8.450;2022-12-07T15:14:45;5.00;99.90
6244;DHT22;3155;49.940;8.450;2022-12-07T15:17:11;5.00;99.90
6244;DHT22;3155;49.940;8.450;2022-12-07T15:19:53;5.00;99.90
6244;DHT22;3155;49.940;8.450;2022-12-07T15:22:20;5.00;99.90
6244;DHT22;3155;49.940;8.450;2022-12-07T15:24:46;5.00;99.90
6244;DHT22;3155;49.940;8.450;2022-12-07T15:27:15;5.10;99.90
6244;DHT22;3155;49.940;8.450;2022-12-07T15:29:42;5.00;99.90
6244;DHT22;3155;49.940;8.450;2022-12-07T15:32:09;5.00;99.90
6244;DHT22;3155;49.940;8.450;2022-12-07T15:34:35;5.00;99.90
6244;DHT22;3155;49.940;8.450;2022-12-07T15:37:06;5.00;99.90
6244;DHT22;3155;49.940;8.450;2022-12-07T15:39:33;4.90;99.90
6244;DHT22;3155;49.940;8.450;2022-12-07T15:42:00;4.80;99.90
6244;DHT22;3155;49.940;8.450;2022-12-07T15:44:27;4.80;99.90
6244;DHT22;3155;49.940;8.450;2022-12-07T15:47:12;4.80;99.90
6244;DHT22;3155;49.940;8.450;2022-12-07T15:49:39;4.80;99.90
6244;DHT22;3155;49.940;8.450;2022-12-07T15:52:06;4.80;99.90
6244;DHT22;3155;49.940;8.450;2022-12-07T15:54:32;4.60;99.90
6244;DHT22;3155;49.940;8.450;2022-12-07T15:56:59;4.20;99.90
6244;DHT22;3155;49.940;8.450;2022-12-07T15:59:27;4.00;99.90
6244;DHT22;3155;49.940;8.450;2022-12-07T16:01:55;3.80;99.90
6244;DHT22;3155;49.940;8.450;2022-12-07T16:04:21;3.70;99.90
6244;DHT22;3155;49.940;8.450;2022-12-07T16:06:48;3.60;99.90
6244;DHT22;3155;49.940;8.450;2022-12-07T16:09:18;3.50;99.90
6244;DHT22;3155;49.940;8.450;2022-12-07T16:11:47;3.40;99.90
6244;DHT22;3155;49.940;8.450;2022-12-07T16:14:16;3.40;99.90
6244;DHT22;3155;49.940;8.450;2022-12-07T16:16:45;3.30;99.90
6244;DHT22;3155;49.940;8.450;2022-12-07T16:19:12;3.30;99.90
6244;DHT22;3155;49.940;8.450;2022-12-07T16:21:39;3.20;99.90
6244;DHT22;3155;49.940;8.450;2022-12-07T16:24:09;3.20;99.90
6244;DHT22;3155;49.940;8.450;2022-12-07T16:26:36;3.20;99.90
6244;DHT22;3155;49.940;8.450;2022-12-07T16:29:04;3.20;99.90
6244;DHT22;3155;49.940;8.450;2022-12-07T16:31:31;3.20;99.90
6244;DHT22;3155;49.940;8.450;2022-12-07T16:33:58;3.20;99.90
6244;DHT22;3155;49.940;8.450;2022-12-07T16:36:25;3.10;99.90
6244;DHT22;3155;49.940;8.450;2022-12-07T16:39:13;3.00;99.90
6244;DHT22;3155;49.940;8.450;2022-12-07T16:41:40;2.90;99.90
6244;DHT22;3155;49.940;8.450;2022-12-07T16:44:10;2.90;99.90
6244;DHT22;3155;49.940;8.450;2022-12-07T16:46:37;2.80;99.90
6244;DHT22;3155;49.940;8.450;2022-12-07T16:49:04;2.70;99.90
6244;DHT22;3155;49.940;8.450;2022-12-07T16:51:31;2.60;99.90
6244;DHT22;3155;49.940;8.450;2022-12-07T16:53:58;2.50;99.90
6244;DHT22;3155;49.940;8.450;2022-12-07T16:56:25;2.50;99.90
6244;DHT22;3155;49.940;8.450;2022-12-07T16:58:53;2.40;99.90
6244;DHT22;3155;49.940;8.450;2022-12-07T17:01:21;2.40;99.90
6244;DHT22;3155;49.940;8.450;2022-12-07T17:03:51;2.30;99.90
6244;DHT22;3155;49.940;8.450;2022-12-07T17:06:28;2.30;99.90
6244;DHT22;3155;49.940;8.450;2022-12-07T17:08:56;2.30;99.90
6244;DHT22;3155;49.940;8.450;2022-12-07T17:11:28;2.40;99.90
6244;DHT22;3155;49.940;8.450;2022-12-07T17:13:55;2.40;99.90
6244;DHT22;3155;49.940;8.450;2022-12-07T17:16:40;2.40;99.90
6244;DHT22;3155;49.940;8.450;2022-12-07T17:19:09;2.40;99.90
6244;DHT22;3155;49.940;8.450;2022-12-07T17:21:39;2.40;99.90
6244;DHT22;3155;49.940;8.450;2022-12-07T17:24:08;2.40;1.00
6244;DHT22;3155;49.940;8.450;2022-12-07T17:26:35;2.40;1.00
6244;DHT22;3155;49.940;8.450;2022-12-07T17:29:04;2.50;99.90
6244;DHT22;3155;49.940;8.450;2022-12-07T17:31:34;2.40;99.90
6244;DHT22;3155;49.940;8.450;2022-12-07T17:34:02;2.40;99.90
6244;DHT22;3155;49.940;8.450;2022-12-07T17:36:30;2.40;1.00
6244;DHT22;3155;49.940;8.450;2022-12-07T17:38:57;2.40;1.00
6244;DHT22;3155;49.940;8.450;2022-12-07T17:41:26;2.40;99.90
6244;DHT22;3155;49.940;8.450;2022-12-07T17:44:15;2.40;99.90
6244;DHT22;3155;49.940;8.450;2022-12-07T17:46:44;2.40;1.00
6244;DHT22;3155;49.940;8.450;2022-12-07T17:49:11;2.50;1.00
6244;DHT22;3155;49.940;8.450;2022-12-07T17:51:38;2.40;1.00
6244;DHT22;3155;49.940;8.450;2022-12-07T17:54:25;2.40;90.50
6244;DHT22;3155;49.940;8.450;2022-12-07T17:56:52;2.40;99.90
6244;DHT22;3155;49.940;8.450;2022-12-07T17:59:19;2.50;99.90
6244;DHT22;3155;49.940;8.450;2022-12-07T18:01:48;2.40;99.90
6244;DHT22;3155;49.940;8.450;2022-12-07T18:04:15;2.50;1.00
6244;DHT22;3155;49.940;8.450;2022-12-07T18:06:42;2.40;1.00
6244;DHT22;3155;49.940;8.450;2022-12-07T18:09:17;2.40;1.00
6244;DHT22;3155;49.940;8.450;2022-12-07T18:11:44;2.40;1.00
6244;DHT22;3155;49.940;8.450;2022-12-07T18:14:11;2.40;1.00
6244;DHT22;3155;49.940;8.450;2022-12-07T18:16:38;2.40;1.00
6244;DHT22;3155;49.940;8.450;2022-12-07T18:19:06;2.30;1.00
6244;DHT22;3155;49.940;8.450;2022-12-07T18:21:34;2.40;1.00
6244;DHT22;3155;49.940;8.450;2022-12-07T18:24:02;2.40;1.00
6244;DHT22;3155;49.940;8.450;2022-12-07T18:26:32;2.40;1.00
6244;DHT22;3155;49.940;8.450;2022-12-07T18:29:01;2.30;1.00
6244;DHT22;3155;49.940;8.450;2022-12-07T18:31:28;2.30;1.00
6244;DHT22;3155;49.940;8.450;2022-12-07T18:33:59;2.30;1.00
6244;DHT22;3155;49.940;8.450;2022-12-07T18:36:26;2.30;19.80
6244;DHT22;3155;49.940;8.450;2022-12-07T18:38:53;2.30;35.40
6244;DHT22;3155;49.940;8.450;2022-12-07T18:41:20;2.20;27.80
6244;DHT22;3155;49.940;8.450;2022-12-07T18:43:50;2.20;88.80
6244;DHT22;3155;49.940;8.450;2022-12-07T18:46:23;2.20;99.90
6244;DHT22;3155;49.940;8.450;2022-12-07T18:48:50;2.20;99.90
6244;DHT22;3155;49.940;8.450;2022-12-07T18:51:18;2.10;99.90
6244;DHT22;3155;49.940;8.450;2022-12-07T18:53:45;2.20;99.90
6244;DHT22;3155;49.940;8.450;2022-12-07T18:56:16;2.10;99.90
6244;DHT22;3155;49.940;8.450;2022-12-07T18:58:48;2.10;99.90
6244;DHT22;3155;49.940;8.450;2022-12-07T19:01:34;2.20;99.90
6244;DHT22;3155;49.940;8.450;2022-12-07T19:04:02;2.20;99.90
6244;DHT22;3155;49.940;8.450;2022-12-07T19:06:29;2.30;1.00
6244;DHT22;3155;49.940;8.450;2022-12-07T19:08:56;2.20;1.00
6244;DHT22;3155;49.940;8.450;2022-12-07T19:11:25;2.30;1.00
6244;DHT22;3155;49.940;8.450;2022-12-07T19:14:12;2.30;1.00
6244;DHT22;3155;49.940;8.450;2022-12-07T19:16:43;2.30;1.00